Startpagina
METAR-TAF:

METAR-TAF

Vliegvelden :

Internationale luchthaven Ted Stevens Anchorage

Anchorage, Alaska, Verenigde Staten

breedte: 61-10-28N, lengte: 149-59-46W, hoogte: 44 m

Actueel weer

Dit bericht is 55 minuten geleden gemaakt, om 14:53 UTC
Weinig wind
Temperatuur 12°C
Vochtigheid 82%
Druk 1011 hPa
Zicht: 16.1 km
Weinig wolken op 5000 ft
Weinig wolken op 8000 ft
Weinig wolken op 25000 ft

METAR: PANC 141453Z 00000KT 10SM FEW050 FEW080 FEW250 12/09 A2984 RMK AO2 SLP107 T01220094 56008 $

Tijdstip: 07:48 (15:48 UTC)

Verwachting

Dit bericht is 51 minuten geleden gemaakt, om 14:57 UTC
Verwachting geldig van 14 om 15 UTC tot 15 om 18 UTC
Wind kt uit het noorden
Zicht: 10 km
Weinig wolken op 8000 ft
Weinig wolken op 25000 ft
Van 14 om 2100 UTC
Wind 7 kt uit het westnoordwesten
Zicht: 10 km
Weinig wolken op 14000 ft
Van 15 om 0900 UTC
Wind 5 kt uit het zuiden
Zicht: 10 km
Weinig wolken op 18000 ft

TAF: PANC 141457Z 1415/1518 00000KT P6SM FEW080 FEW250 FM142100 29007KT P6SM FEW140 FM150900 18005KT P6SM FEW180

Waarnemingen en weersverwachtingen van meer dan 4000 vliegvelden (METAR en TAF).

De beschikbare stations zijn de gele en rode punten op de kaart.

Ga met uw muis naar het station om de naam te zien.

Klik dan om waarnemingen en weersverwachtingen te zien.

kaart wijzigen: klik op de groene knoppen met een zwart kruis om in te zoomen, op de groene knop met een streepje om uit te zoomen of op de groene pijlen voor aangrenzende kaarten.


METAR-TAF: